sensor_id;sensor_type;location;lat;lon;timestamp;temperature;humidity
2749;DHT22;1382;52.142;11.618;2023-04-01T00:00:14;14.60;55.50
2749;DHT22;1382;52.142;11.618;2023-04-01T00:02:41;14.60;55.60
2749;DHT22;1382;52.142;11.618;2023-04-01T00:05:10;14.60;55.40
2749;DHT22;1382;52.142;11.618;2023-04-01T00:07:37;14.60;55.40
2749;DHT22;1382;52.142;11.618;2023-04-01T00:10:06;14.50;55.50
2749;DHT22;1382;52.142;11.618;2023-04-01T00:12:33;14.50;55.60
2749;DHT22;1382;52.142;11.618;2023-04-01T00:15:00;14.50;55.40
2749;DHT22;1382;52.142;11.618;2023-04-01T00:17:27;14.50;55.20
2749;DHT22;1382;52.142;11.618;2023-04-01T00:19:55;14.50;55.30
2749;DHT22;1382;52.142;11.618;2023-04-01T00:22:26;14.50;55.30
2749;DHT22;1382;52.142;11.618;2023-04-01T00:24:53;14.70;55.40
2749;DHT22;1382;52.142;11.618;2023-04-01T00:27:20;14.50;54.90
2749;DHT22;1382;52.142;11.618;2023-04-01T00:29:47;14.50;55.00
2749;DHT22;1382;52.142;11.618;2023-04-01T00:32:14;14.50;55.20
2749;DHT22;1382;52.142;11.618;2023-04-01T00:34:41;14.50;54.90
2749;DHT22;1382;52.142;11.618;2023-04-01T00:37:08;14.50;55.30
2749;DHT22;1382;52.142;11.618;2023-04-01T00:39:36;14.50;55.20
2749;DHT22;1382;52.142;11.618;2023-04-01T00:42:03;14.50;55.30
2749;DHT22;1382;52.142;11.618;2023-04-01T00:44:32;14.50;55.10
2749;DHT22;1382;52.142;11.618;2023-04-01T00:47:00;14.50;55.10
2749;DHT22;1382;52.142;11.618;2023-04-01T00:49:30;14.50;55.10
2749;DHT22;1382;52.142;11.618;2023-04-01T00:51:59;14.50;55.30
2749;DHT22;1382;52.142;11.618;2023-04-01T00:54:29;14.60;55.40
2749;DHT22;1382;52.142;11.618;2023-04-01T00:57:00;14.50;55.70
2749;DHT22;1382;52.142;11.618;2023-04-01T00:59:30;14.50;55.40
2749;DHT22;1382;52.142;11.618;2023-04-01T01:01:58;14.60;55.30
2749;DHT22;1382;52.142;11.618;2023-04-01T01:04:27;14.50;55.30
2749;DHT22;1382;52.142;11.618;2023-04-01T01:07:00;14.50;55.50
2749;DHT22;1382;52.142;11.618;2023-04-01T01:09:41;14.50;55.50
2749;DHT22;1382;52.142;11.618;2023-04-01T01:12:14;14.60;55.90
2749;DHT22;1382;52.142;11.618;2023-04-01T01:14:51;14.40;55.60
2749;DHT22;1382;52.142;11.618;2023-04-01T01:17:25;14.50;55.70
2749;DHT22;1382;52.142;11.618;2023-04-01T01:20:14;14.40;55.60
2749;DHT22;1382;52.142;11.618;2023-04-01T01:23:04;14.50;55.70
2749;DHT22;1382;52.142;11.618;2023-04-01T01:25:40;14.40;55.70
2749;DHT22;1382;52.142;11.618;2023-04-01T01:28:25;14.40;55.60
2749;DHT22;1382;52.142;11.618;2023-04-01T01:31:00;14.40;55.80
2749;DHT22;1382;52.142;11.618;2023-04-01T01:33:50;14.40;55.90
2749;DHT22;1382;52.142;11.618;2023-04-01T01:36:21;14.50;56.00
2749;DHT22;1382;52.142;11.618;2023-04-01T01:38:48;14.40;55.70
2749;DHT22;1382;52.142;11.618;2023-04-01T01:41:18;14.40;55.50
2749;DHT22;1382;52.142;11.618;2023-04-01T01:43:48;14.40;55.50
2749;DHT22;1382;52.142;11.618;2023-04-01T01:46:20;14.40;55.40
2749;DHT22;1382;52.142;11.618;2023-04-01T01:48:48;14.40;55.60
2749;DHT22;1382;52.142;11.618;2023-04-01T01:51:16;14.40;55.80
2749;DHT22;1382;52.142;11.618;2023-04-01T01:53:44;14.40;55.50
2749;DHT22;1382;52.142;11.618;2023-04-01T01:56:12;14.40;55.80
2749;DHT22;1382;52.142;11.618;2023-04-01T01:58:43;14.40;55.70
2749;DHT22;1382;52.142;11.618;2023-04-01T02:01:13;14.40;56.30
2749;DHT22;1382;52.142;11.618;2023-04-01T02:03:41;14.40;56.00
2749;DHT22;1382;52.142;11.618;2023-04-01T02:06:11;14.40;55.80
2749;DHT22;1382;52.142;11.618;2023-04-01T02:08:44;14.50;56.00
2749;DHT22;1382;52.142;11.618;2023-04-01T02:11:15;14.40;55.80
2749;DHT22;1382;52.142;11.618;2023-04-01T02:13:45;14.40;55.90
2749;DHT22;1382;52.142;11.618;2023-04-01T02:16:16;14.30;55.50
2749;DHT22;1382;52.142;11.618;2023-04-01T02:18:45;14.30;55.70
2749;DHT22;1382;52.142;11.618;2023-04-01T02:21:14;14.30;55.40
2749;DHT22;1382;52.142;11.618;2023-04-01T02:23:43;14.30;55.50
2749;DHT22;1382;52.142;11.618;2023-04-01T02:26:11;14.30;55.50
2749;DHT22;1382;52.142;11.618;2023-04-01T02:28:40;14.30;55.10
2749;DHT22;1382;52.142;11.618;2023-04-01T02:31:08;14.30;55.10
2749;DHT22;1382;52.142;11.618;2023-04-01T02:33:37;14.30;55.30
2749;DHT22;1382;52.142;11.618;2023-04-01T02:36:05;14.30;55.10
2749;DHT22;1382;52.142;11.618;2023-04-01T02:38:32;14.10;54.90
2749;DHT22;1382;52.142;11.618;2023-04-01T02:41:03;14.30;55.10
2749;DHT22;1382;52.142;11.618;2023-04-01T02:43:30;14.50;55.30
2749;DHT22;1382;52.142;11.618;2023-04-01T02:45:56;14.30;55.20
2749;DHT22;1382;52.142;11.618;2023-04-01T02:48:23;14.30;55.30
2749;DHT22;1382;52.142;11.618;2023-04-01T02:50:50;14.30;55.10
2749;DHT22;1382;52.142;11.618;2023-04-01T02:53:17;14.30;55.10
2749;DHT22;1382;52.142;11.618;2023-04-01T02:55:43;14.30;55.20
2749;DHT22;1382;52.142;11.618;2023-04-01T02:58:12;14.30;55.10
2749;DHT22;1382;52.142;11.618;2023-04-01T03:00:38;14.30;55.10
2749;DHT22;1382;52.142;11.618;2023-04-01T03:03:05;14.30;55.10
2749;DHT22;1382;52.142;11.618;2023-04-01T03:05:32;14.40;55.40
2749;DHT22;1382;52.142;11.618;2023-04-01T03:07:59;14.30;55.30
2749;DHT22;1382;52.142;11.618;2023-04-01T03:10:26;14.30;55.60
2749;DHT22;1382;52.142;11.618;2023-04-01T03:12:53;14.20;55.10
2749;DHT22;1382;52.142;11.618;2023-04-01T03:15:21;14.30;55.40
2749;DHT22;1382;52.142;11.618;2023-04-01T03:17:48;14.40;55.70
2749;DHT22;1382;52.142;11.618;2023-04-01T03:20:15;14.20;55.10
2749;DHT22;1382;52.142;11.618;2023-04-01T03:22:41;14.20;55.10
2749;DHT22;1382;52.142;11.618;2023-04-01T03:25:10;14.20;55.10
2749;DHT22;1382;52.142;11.618;2023-04-01T03:27:37;14.20;55.20
2749;DHT22;1382;52.142;11.618;2023-04-01T03:30:06;14.20;55.00
2749;DHT22;1382;52.142;11.618;2023-04-01T03:32:34;14.20;55.10
2749;DHT22;1382;52.142;11.618;2023-04-01T03:35:01;14.20;55.30
2749;DHT22;1382;52.142;11.618;2023-04-01T03:37:28;14.20;55.40
2749;DHT22;1382;52.142;11.618;2023-04-01T03:39:54;14.20;55.30
2749;DHT22;1382;52.142;11.618;2023-04-01T03:42:21;14.30;55.40
2749;DHT22;1382;52.142;11.618;2023-04-01T03:44:48;14.20;55.10
2749;DHT22;1382;52.142;11.618;2023-04-01T03:47:14;14.30;55.30
2749;DHT22;1382;52.142;11.618;2023-04-01T03:49:42;14.30;55.20
2749;DHT22;1382;52.142;11.618;2023-04-01T03:52:10;14.20;55.30
2749;DHT22;1382;52.142;11.618;2023-04-01T03:54:37;14.10;54.90
2749;DHT22;1382;52.142;11.618;2023-04-01T03:57:04;14.20;55.20
2749;DHT22;1382;52.142;11.618;2023-04-01T03:59:31;14.20;55.40
2749;DHT22;1382;52.142;11.618;2023-04-01T04:01:57;14.10;55.20
2749;DHT22;1382;52.142;11.618;2023-04-01T04:04:24;14.10;55.40
2749;DHT22;1382;52.142;11.618;2023-04-01T04:06:52;14.10;55.20
2749;DHT22;1382;52.142;11.618;2023-04-01T04:09:19;14.10;55.10
2749;DHT22;1382;52.142;11.618;2023-04-01T04:11:46;14.10;55.30
2749;DHT22;1382;52.142;11.618;2023-04-01T04:14:12;14.10;55.30
2749;DHT22;1382;52.142;11.618;2023-04-01T04:16:39;14.10;55.20
2749;DHT22;1382;52.142;11.618;2023-04-01T04:19:06;14.10;55.50
2749;DHT22;1382;52.142;11.618;2023-04-01T04:21:32;14.10;55.60
2749;DHT22;1382;52.142;11.618;2023-04-01T04:24:01;14.10;55.50
2749;DHT22;1382;52.142;11.618;2023-04-01T04:26:28;14.10;55.40
2749;DHT22;1382;52.142;11.618;2023-04-01T04:28:55;14.00;55.10
2749;DHT22;1382;52.142;11.618;2023-04-01T04:31:24;14.00;55.10
2749;DHT22;1382;52.142;11.618;2023-04-01T04:33:52;14.00;55.10
2749;DHT22;1382;52.142;11.618;2023-04-01T04:36:20;14.00;55.10
2749;DHT22;1382;52.142;11.618;2023-04-01T04:38:47;14.00;55.00
2749;DHT22;1382;52.142;11.618;2023-04-01T04:41:17;14.00;55.00
2749;DHT22;1382;52.142;11.618;2023-04-01T04:43:49;14.10;55.40
2749;DHT22;1382;52.142;11.618;2023-04-01T04:46:17;14.00;55.30
2749;DHT22;1382;52.142;11.618;2023-04-01T04:48:43;14.00;55.10
2749;DHT22;1382;52.142;11.618;2023-04-01T04:51:13;14.00;55.20
2749;DHT22;1382;52.142;11.618;2023-04-01T04:53:41;14.00;55.30
2749;DHT22;1382;52.142;11.618;2023-04-01T04:56:11;14.00;55.20
2749;DHT22;1382;52.142;11.618;2023-04-01T04:58:39;14.00;55.20
2749;DHT22;1382;52.142;11.618;2023-04-01T05:01:08;14.00;55.30
2749;DHT22;1382;52.142;11.618;2023-04-01T05:03:35;13.90;54.80
2749;DHT22;1382;52.142;11.618;2023-04-01T05:06:02;13.90;54.80
2749;DHT22;1382;52.142;11.618;2023-04-01T05:08:29;14.00;54.90
2749;DHT22;1382;52.142;11.618;2023-04-01T05:10:56;13.90;54.80
2749;DHT22;1382;52.142;11.618;2023-04-01T05:13:23;14.10;55.30
2749;DHT22;1382;52.142;11.618;2023-04-01T05:15:51;13.90;54.90
2749;DHT22;1382;52.142;11.618;2023-04-01T05:18:18;14.00;54.90
2749;DHT22;1382;52.142;11.618;2023-04-01T05:20:49;13.90;55.00
2749;DHT22;1382;52.142;11.618;2023-04-01T05:23:16;13.90;54.80
2749;DHT22;1382;52.142;11.618;2023-04-01T05:25:43;13.90;54.80
2749;DHT22;1382;52.142;11.618;2023-04-01T05:28:10;13.90;55.00
2749;DHT22;1382;52.142;11.618;2023-04-01T05:30:39;13.90;55.10
2749;DHT22;1382;52.142;11.618;2023-04-01T05:33:07;14.00;55.10
2749;DHT22;1382;52.142;11.618;2023-04-01T05:35:34;13.90;55.10
2749;DHT22;1382;52.142;11.618;2023-04-01T05:38:01;13.90;55.10
2749;DHT22;1382;52.142;11.618;2023-04-01T05:40:28;13.90;55.10
2749;DHT22;1382;52.142;11.618;2023-04-01T05:42:55;14.10;55.30
2749;DHT22;1382;52.142;11.618;2023-04-01T05:45:22;13.90;55.10
2749;DHT22;1382;52.142;11.618;2023-04-01T05:47:49;13.90;55.00
2749;DHT22;1382;52.142;11.618;2023-04-01T05:50:18;13.90;55.00
2749;DHT22;1382;52.142;11.618;2023-04-01T05:52:44;13.90;55.30
2749;DHT22;1382;52.142;11.618;2023-04-01T05:55:11;13.90;55.10
2749;DHT22;1382;52.142;11.618;2023-04-01T05:57:38;13.90;55.20
2749;DHT22;1382;52.142;11.618;2023-04-01T06:00:06;13.90;55.10
2749;DHT22;1382;52.142;11.618;2023-04-01T06:02:33;14.00;55.20
2749;DHT22;1382;52.142;11.618;2023-04-01T06:05:10;13.90;55.00
2749;DHT22;1382;52.142;11.618;2023-04-01T06:07:39;14.00;55.00
2749;DHT22;1382;52.142;11.618;2023-04-01T06:10:12;13.90;55.20
2749;DHT22;1382;52.142;11.618;2023-04-01T06:12:54;14.00;55.80
2749;DHT22;1382;52.142;11.618;2023-04-01T06:15:30;14.00;55.70
2749;DHT22;1382;52.142;11.618;2023-04-01T06:18:14;14.00;55.50
2749;DHT22;1382;52.142;11.618;2023-04-01T06:20:52;14.00;56.00
2749;DHT22;1382;52.142;11.618;2023-04-01T06:23:42;14.00;56.10
2749;DHT22;1382;52.142;11.618;2023-04-01T06:26:18;14.10;56.00
2749;DHT22;1382;52.142;11.618;2023-04-01T06:29:04;14.00;56.10
2749;DHT22;1382;52.142;11.618;2023-04-01T06:31:47;14.10;56.20
2749;DHT22;1382;52.142;11.618;2023-04-01T06:34:36;14.10;56.20
2749;DHT22;1382;52.142;11.618;2023-04-01T06:37:20;14.20;56.50
2749;DHT22;1382;52.142;11.618;2023-04-01T06:40:12;14.20;56.40
2749;DHT22;1382;52.142;11.618;2023-04-01T06:42:57;14.20;56.20
2749;DHT22;1382;52.142;11.618;2023-04-01T06:45:32;14.20;56.80
2749;DHT22;1382;52.142;11.618;2023-04-01T06:48:16;14.30;56.70
2749;DHT22;1382;52.142;11.618;2023-04-01T06:50:53;14.30;56.50
2749;DHT22;1382;52.142;11.618;2023-04-01T06:53:52;14.30;56.70
2749;DHT22;1382;52.142;11.618;2023-04-01T06:56:32;14.60;56.70
2749;DHT22;1382;52.142;11.618;2023-04-01T06:59:17;14.40;56.70
2749;DHT22;1382;52.142;11.618;2023-04-01T07:01:47;14.40;56.50
2749;DHT22;1382;52.142;11.618;2023-04-01T07:04:20;14.60;56.80
2749;DHT22;1382;52.142;11.618;2023-04-01T07:06:49;14.50;56.50
2749;DHT22;1382;52.142;11.618;2023-04-01T07:09:19;14.70;56.50
2749;DHT22;1382;52.142;11.618;2023-04-01T07:11:49;14.60;56.60
2749;DHT22;1382;52.142;11.618;2023-04-01T07:14:20;14.60;56.60
2749;DHT22;1382;52.142;11.618;2023-04-01T07:16:51;14.70;57.00
2749;DHT22;1382;52.142;11.618;2023-04-01T07:19:23;14.70;56.90
2749;DHT22;1382;52.142;11.618;2023-04-01T07:21:56;14.80;56.50
2749;DHT22;1382;52.142;11.618;2023-04-01T07:24:27;14.80;56.80
2749;DHT22;1382;52.142;11.618;2023-04-01T07:26:59;15.00;57.00
2749;DHT22;1382;52.142;11.618;2023-04-01T07:29:27;14.90;57.20
2749;DHT22;1382;52.142;11.618;2023-04-01T07:32:09;15.10;57.70
2749;DHT22;1382;52.142;11.618;2023-04-01T07:34:50;15.00;57.30
2749;DHT22;1382;52.142;11.618;2023-04-01T07:37:24;15.00;57.30
2749;DHT22;1382;52.142;11.618;2023-04-01T07:40:03;15.00;57.20
2749;DHT22;1382;52.142;11.618;2023-04-01T07:42:46;15.30;57.20
2749;DHT22;1382;52.142;11.618;2023-04-01T07:45:19;15.10;57.00
2749;DHT22;1382;52.142;11.618;2023-04-01T07:47:59;15.20;56.60
2749;DHT22;1382;52.142;11.618;2023-04-01T07:50:31;15.20;56.90
2749;DHT22;1382;52.142;11.618;2023-04-01T07:53:05;15.30;56.60
2749;DHT22;1382;52.142;11.618;2023-04-01T07:55:40;15.30;56.90
2749;DHT22;1382;52.142;11.618;2023-04-01T07:58:16;15.50;57.20
2749;DHT22;1382;52.142;11.618;2023-04-01T08:00:50;15.40;57.30
2749;DHT22;1382;52.142;11.618;2023-04-01T08:03:38;15.40;57.30
2749;DHT22;1382;52.142;11.618;2023-04-01T08:06:14;15.50;57.60
2749;DHT22;1382;52.142;11.618;2023-04-01T08:08:57;15.50;57.30
2749;DHT22;1382;52.142;11.618;2023-04-01T08:11:36;15.60;57.00
2749;DHT22;1382;52.142;11.618;2023-04-01T08:14:09;15.60;56.60
2749;DHT22;1382;52.142;11.618;2023-04-01T08:16:45;15.60;56.40
2749;DHT22;1382;52.142;11.618;2023-04-01T08:19:24;15.70;56.80
2749;DHT22;1382;52.142;11.618;2023-04-01T08:21:56;15.70;57.00
2749;DHT22;1382;52.142;11.618;2023-04-01T08:24:27;15.70;57.20
2749;DHT22;1382;52.142;11.618;2023-04-01T08:27:17;15.80;57.50
2749;DHT22;1382;52.142;11.618;2023-04-01T08:29:51;15.80;56.70
2749;DHT22;1382;52.142;11.618;2023-04-01T08:32:23;16.10;56.60
2749;DHT22;1382;52.142;11.618;2023-04-01T08:35:01;15.90;56.40
2749;DHT22;1382;52.142;11.618;2023-04-01T08:37:32;15.90;56.20
2749;DHT22;1382;52.142;11.618;2023-04-01T08:40:22;16.00;56.20
2749;DHT22;1382;52.142;11.618;2023-04-01T08:43:06;16.10;56.00
2749;DHT22;1382;52.142;11.618;2023-04-01T08:45:53;16.10;55.60
2749;DHT22;1382;52.142;11.618;2023-04-01T08:48:45;16.20;55.70
2749;DHT22;1382;52.142;11.618;2023-04-01T08:51:42;16.20;55.70
2749;DHT22;1382;52.142;11.618;2023-04-01T08:57:32;16.30;55.80
2749;DHT22;1382;52.142;11.618;2023-04-01T09:00:13;16.40;56.20
2749;DHT22;1382;52.142;11.618;2023-04-01T09:03:02;16.50;56.10
2749;DHT22;1382;52.142;11.618;2023-04-01T09:06:06;16.60;56.10
2749;DHT22;1382;52.142;11.618;2023-04-01T09:08:49;16.60;55.90
2749;DHT22;1382;52.142;11.618;2023-04-01T09:11:28;16.70;56.50
2749;DHT22;1382;52.142;11.618;2023-04-01T09:14:28;16.80;56.00
2749;DHT22;1382;52.142;11.618;2023-04-01T09:17:09;16.90;55.40
2749;DHT22;1382;52.142;11.618;2023-04-01T09:19:52;16.90;55.40
2749;DHT22;1382;52.142;11.618;2023-04-01T09:22:35;17.00;55.30
2749;DHT22;1382;52.142;11.618;2023-04-01T09:25:26;17.00;55.20
2749;DHT22;1382;52.142;11.618;2023-04-01T09:28:03;17.20;54.80
2749;DHT22;1382;52.142;11.618;2023-04-01T09:30:55;17.20;54.70
2749;DHT22;1382;52.142;11.618;2023-04-01T09:34:05;17.30;54.70
2749;DHT22;1382;52.142;11.618;2023-04-01T09:36:45;17.40;54.40
2749;DHT22;1382;52.142;11.618;2023-04-01T09:39:29;17.30;55.00
2749;DHT22;1382;52.142;11.618;2023-04-01T09:42:14;17.40;54.60
2749;DHT22;1382;52.142;11.618;2023-04-01T09:44:47;17.50;54.70
2749;DHT22;1382;52.142;11.618;2023-04-01T09:47:25;17.60;54.90
2749;DHT22;1382;52.142;11.618;2023-04-01T09:50:14;17.70;55.00
2749;DHT22;1382;52.142;11.618;2023-04-01T09:52:48;17.80;54.90
2749;DHT22;1382;52.142;11.618;2023-04-01T09:55:39;18.00;55.40
2749;DHT22;1382;52.142;11.618;2023-04-01T09:58:42;18.10;55.60
2749;DHT22;1382;52.142;11.618;2023-04-01T10:01:34;18.30;55.50
2749;DHT22;1382;52.142;11.618;2023-04-01T10:07:51;18.60;55.60
2749;DHT22;1382;52.142;11.618;2023-04-01T10:10:55;18.70;56.10
2749;DHT22;1382;52.142;11.618;2023-04-01T10:14:03;18.80;55.80
2749;DHT22;1382;52.142;11.618;2023-04-01T10:16:48;18.90;54.70
2749;DHT22;1382;52.142;11.618;2023-04-01T10:22:53;19.20;56.20
2749;DHT22;1382;52.142;11.618;2023-04-01T10:31:53;19.50;55.30
2749;DHT22;1382;52.142;11.618;2023-04-01T10:34:42;19.60;55.20
2749;DHT22;1382;52.142;11.618;2023-04-01T10:37:29;19.60;55.00
2749;DHT22;1382;52.142;11.618;2023-04-01T10:43:46;19.80;54.80
2749;DHT22;1382;52.142;11.618;2023-04-01T10:46:51;19.80;55.30
2749;DHT22;1382;52.142;11.618;2023-04-01T10:49:48;19.90;54.90
2749;DHT22;1382;52.142;11.618;2023-04-01T10:55:26;19.60;52.20
2749;DHT22;1382;52.142;11.618;2023-04-01T10:58:20;19.50;51.50
2749;DHT22;1382;52.142;11.618;2023-04-01T11:04:14;19.30;51.40
2749;DHT22;1382;52.142;11.618;2023-04-01T11:10:25;19.30;51.20
2749;DHT22;1382;52.142;11.618;2023-04-01T11:19:36;19.20;51.50
2749;DHT22;1382;52.142;11.618;2023-04-01T11:22:41;19.20;51.20
2749;DHT22;1382;52.142;11.618;2023-04-01T11:25:27;19.30;51.20
2749;DHT22;1382;52.142;11.618;2023-04-01T11:28:15;19.20;51.10
2749;DHT22;1382;52.142;11.618;2023-04-01T11:30:56;19.20;50.70
2749;DHT22;1382;52.142;11.618;2023-04-01T11:33:33;19.20;51.40
2749;DHT22;1382;52.142;11.618;2023-04-01T11:36:11;19.20;51.20
2749;DHT22;1382;52.142;11.618;2023-04-01T11:41:41;19.40;50.60
2749;DHT22;1382;52.142;11.618;2023-04-01T11:44:16;19.40;50.80
2749;DHT22;1382;52.142;11.618;2023-04-01T11:47:00;19.50;50.00
2749;DHT22;1382;52.142;11.618;2023-04-01T11:49:40;19.50;51.10
2749;DHT22;1382;52.142;11.618;2023-04-01T11:52:25;19.50;50.70
2749;DHT22;1382;52.142;11.618;2023-04-01T11:55:10;19.50;51.80
2749;DHT22;1382;52.142;11.618;2023-04-01T11:57:51;19.60;50.00
2749;DHT22;1382;52.142;11.618;2023-04-01T12:00:29;19.50;49.90
2749;DHT22;1382;52.142;11.618;2023-04-01T12:03:10;19.60;49.80
2749;DHT22;1382;52.142;11.618;2023-04-01T12:05:47;19.60;50.40
2749;DHT22;1382;52.142;11.618;2023-04-01T12:08:26;19.60;49.70
2749;DHT22;1382;52.142;11.618;2023-04-01T12:11:00;19.60;50.40
2749;DHT22;1382;52.142;11.618;2023-04-01T12:13:38;19.70;50.40
2749;DHT22;1382;52.142;11.618;2023-04-01T12:16:23;19.60;50.50
2749;DHT22;1382;52.142;11.618;2023-04-01T12:18:55;19.60;50.20
2749;DHT22;1382;52.142;11.618;2023-04-01T12:21:29;19.50;50.60
2749;DHT22;1382;52.142;11.618;2023-04-01T12:27:02;19.50;50.70
2749;DHT22;1382;52.142;11.618;2023-04-01T12:29:48;19.60;50.70
2749;DHT22;1382;52.142;11.618;2023-04-01T12:32:24;19.50;51.10
2749;DHT22;1382;52.142;11.618;2023-04-01T12:35:20;19.40;50.60
2749;DHT22;1382;52.142;11.618;2023-04-01T12:37:58;19.40;50.30
2749;DHT22;1382;52.142;11.618;2023-04-01T12:40:45;19.40;50.50
2749;DHT22;1382;52.142;11.618;2023-04-01T12:43:34;19.40;50.20
2749;DHT22;1382;52.142;11.618;2023-04-01T12:46:16;19.40;50.80
2749;DHT22;1382;52.142;11.618;2023-04-01T12:49:02;19.30;51.10
2749;DHT22;1382;52.142;11.618;2023-04-01T12:51:58;19.40;50.40
2749;DHT22;1382;52.142;11.618;2023-04-01T12:54:56;19.40;50.30
2749;DHT22;1382;52.142;11.618;2023-04-01T12:57:39;19.40;50.60
2749;DHT22;1382;52.142;11.618;2023-04-01T13:00:18;19.30;49.60
2749;DHT22;1382;52.142;11.618;2023-04-01T13:03:02;19.30;50.30
2749;DHT22;1382;52.142;11.618;2023-04-01T13:08:52;19.50;49.90
2749;DHT22;1382;52.142;11.618;2023-04-01T13:11:30;19.50;50.50
2749;DHT22;1382;52.142;11.618;2023-04-01T13:14:27;19.50;49.70
2749;DHT22;1382;52.142;11.618;2023-04-01T13:17:06;19.60;50.50
2749;DHT22;1382;52.142;11.618;2023-04-01T13:19:40;19.70;50.90
2749;DHT22;1382;52.142;11.618;2023-04-01T13:22:27;19.80;50.70
2749;DHT22;1382;52.142;11.618;2023-04-01T13:25:01;19.90;49.60
2749;DHT22;1382;52.142;11.618;2023-04-01T13:27:35;19.70;49.20
2749;DHT22;1382;52.142;11.618;2023-04-01T13:30:20;19.70;48.50
2749;DHT22;1382;52.142;11.618;2023-04-01T13:32:56;19.60;47.00
2749;DHT22;1382;52.142;11.618;2023-04-01T13:35:31;19.60;47.30
2749;DHT22;1382;52.142;11.618;2023-04-01T13:38:15;19.40;47.90
2749;DHT22;1382;52.142;11.618;2023-04-01T13:40:51;19.30;48.10
2749;DHT22;1382;52.142;11.618;2023-04-01T13:43:32;19.30;49.10
2749;DHT22;1382;52.142;11.618;2023-04-01T13:46:32;19.30;49.90
2749;DHT22;1382;52.142;11.618;2023-04-01T13:49:28;19.40;50.00
2749;DHT22;1382;52.142;11.618;2023-04-01T13:52:13;19.40;50.80
2749;DHT22;1382;52.142;11.618;2023-04-01T13:55:04;19.30;51.40
2749;DHT22;1382;52.142;11.618;2023-04-01T13:57:47;19.30;51.60
2749;DHT22;1382;52.142;11.618;2023-04-01T14:00:25;19.20;51.70
2749;DHT22;1382;52.142;11.618;2023-04-01T14:03:09;19.10;51.90
2749;DHT22;1382;52.142;11.618;2023-04-01T14:05:53;19.10;52.00
2749;DHT22;1382;52.142;11.618;2023-04-01T14:08:33;19.00;52.70
2749;DHT22;1382;52.142;11.618;2023-04-01T14:11:13;19.00;52.10
2749;DHT22;1382;52.142;11.618;2023-04-01T14:13:46;18.90;52.10
2749;DHT22;1382;52.142;11.618;2023-04-01T14:16:40;18.90;52.20
2749;DHT22;1382;52.142;11.618;2023-04-01T14:19:25;18.80;52.00
2749;DHT22;1382;52.142;11.618;2023-04-01T14:21:59;18.70;52.00
2749;DHT22;1382;52.142;11.618;2023-04-01T14:24:41;18.60;52.00
2749;DHT22;1382;52.142;11.618;2023-04-01T14:27:31;18.50;52.00
2749;DHT22;1382;52.142;11.618;2023-04-01T14:33:28;18.40;52.10
2749;DHT22;1382;52.142;11.618;2023-04-01T14:36:23;18.20;52.10
2749;DHT22;1382;52.142;11.618;2023-04-01T14:39:04;18.20;52.30
2749;DHT22;1382;52.142;11.618;2023-04-01T14:41:44;18.00;52.30
2749;DHT22;1382;52.142;11.618;2023-04-01T14:44:45;17.90;52.40
2749;DHT22;1382;52.142;11.618;2023-04-01T14:47:34;17.90;52.50
2749;DHT22;1382;52.142;11.618;2023-04-01T14:50:11;17.80;52.50
2749;DHT22;1382;52.142;11.618;2023-04-01T14:52:40;17.70;52.70
2749;DHT22;1382;52.142;11.618;2023-04-01T14:55:27;17.60;52.70
2749;DHT22;1382;52.142;11.618;2023-04-01T14:58:04;17.50;52.70
2749;DHT22;1382;52.142;11.618;2023-04-01T15:00:54;17.50;52.90
2749;DHT22;1382;52.142;11.618;2023-04-01T15:03:28;17.40;52.80
2749;DHT22;1382;52.142;11.618;2023-04-01T15:09:02;17.20;52.70
2749;DHT22;1382;52.142;11.618;2023-04-01T15:11:37;17.10;52.90
2749;DHT22;1382;52.142;11.618;2023-04-01T15:14:21;17.00;52.90
2749;DHT22;1382;52.142;11.618;2023-04-01T15:17:01;16.90;52.90
2749;DHT22;1382;52.142;11.618;2023-04-01T15:19:39;16.90;53.10
2749;DHT22;1382;52.142;11.618;2023-04-01T15:22:37;16.80;53.10
2749;DHT22;1382;52.142;11.618;2023-04-01T15:25:27;16.80;53.20
2749;DHT22;1382;52.142;11.618;2023-04-01T15:28:02;16.70;53.30
2749;DHT22;1382;52.142;11.618;2023-04-01T15:30:35;16.60;53.30
2749;DHT22;1382;52.142;11.618;2023-04-01T15:33:14;16.60;53.30
2749;DHT22;1382;52.142;11.618;2023-04-01T15:35:48;16.50;53.20
2749;DHT22;1382;52.142;11.618;2023-04-01T15:38:28;16.40;53.30
2749;DHT22;1382;52.142;11.618;2023-04-01T15:41:03;16.40;53.40
2749;DHT22;1382;52.142;11.618;2023-04-01T15:43:40;16.30;53.30
2749;DHT22;1382;52.142;11.618;2023-04-01T15:46:27;16.40;53.40
2749;DHT22;1382;52.142;11.618;2023-04-01T15:49:05;16.30;53.20
2749;DHT22;1382;52.142;11.618;2023-04-01T15:51:48;16.10;53.30
2749;DHT22;1382;52.142;11.618;2023-04-01T15:54:31;16.10;53.40
2749;DHT22;1382;52.142;11.618;2023-04-01T15:57:14;16.00;53.40
2749;DHT22;1382;52.142;11.618;2023-04-01T16:00:00;15.90;53.50
2749;DHT22;1382;52.142;11.618;2023-04-01T16:02:32;15.80;53.50
2749;DHT22;1382;52.142;11.618;2023-04-01T16:05:07;15.70;53.70
2749;DHT22;1382;52.142;11.618;2023-04-01T16:07:47;15.70;53.70
2749;DHT22;1382;52.142;11.618;2023-04-01T16:10:38;15.60;53.50
2749;DHT22;1382;52.142;11.618;2023-04-01T16:13:22;15.60;53.70
2749;DHT22;1382;52.142;11.618;2023-04-01T16:15:59;15.50;53.50
2749;DHT22;1382;52.142;11.618;2023-04-01T16:18:36;15.40;53.80
2749;DHT22;1382;52.142;11.618;2023-04-01T16:21:10;15.40;53.80
2749;DHT22;1382;52.142;11.618;2023-04-01T16:23:42;15.30;53.90
2749;DHT22;1382;52.142;11.618;2023-04-01T16:26:18;15.30;54.00
2749;DHT22;1382;52.142;11.618;2023-04-01T16:28:52;15.30;54.00
2749;DHT22;1382;52.142;11.618;2023-04-01T16:31:29;15.30;53.90
2749;DHT22;1382;52.142;11.618;2023-04-01T16:34:02;15.30;53.80
2749;DHT22;1382;52.142;11.618;2023-04-01T16:36:35;15.30;54.50
2749;DHT22;1382;52.142;11.618;2023-04-01T16:39:29;15.30;53.80
2749;DHT22;1382;52.142;11.618;2023-04-01T16:45:00;15.10;53.60
2749;DHT22;1382;52.142;11.618;2023-04-01T16:47:29;14.90;53.60
2749;DHT22;1382;52.142;11.618;2023-04-01T16:49:59;14.80;54.00
2749;DHT22;1382;52.142;11.618;2023-04-01T16:52:35;15.00;54.10
2749;DHT22;1382;52.142;11.618;2023-04-01T16:55:12;14.80;54.20
2749;DHT22;1382;52.142;11.618;2023-04-01T16:57:48;14.70;54.10
2749;DHT22;1382;52.142;11.618;2023-04-01T17:00:24;14.70;54.30
2749;DHT22;1382;52.142;11.618;2023-04-01T17:03:01;14.60;54.20
2749;DHT22;1382;52.142;11.618;2023-04-01T17:05:40;14.60;54.30
2749;DHT22;1382;52.142;11.618;2023-04-01T17:08:20;14.60;54.40
2749;DHT22;1382;52.142;11.618;2023-04-01T17:10:52;14.50;54.20
2749;DHT22;1382;52.142;11.618;2023-04-01T17:13:32;14.40;54.50
2749;DHT22;1382;52.142;11.618;2023-04-01T17:16:10;14.40;54.30
2749;DHT22;1382;52.142;11.618;2023-04-01T17:18:45;14.30;54.60
2749;DHT22;1382;52.142;11.618;2023-04-01T17:21:17;14.30;54.30
2749;DHT22;1382;52.142;11.618;2023-04-01T17:23:51;14.30;54.50
2749;DHT22;1382;52.142;11.618;2023-04-01T17:26:26;14.20;54.40
2749;DHT22;1382;52.142;11.618;2023-04-01T17:29:02;14.20;54.50
2749;DHT22;1382;52.142;11.618;2023-04-01T17:31:42;14.20;54.50
2749;DHT22;1382;52.142;11.618;2023-04-01T17:34:23;14.10;54.60
2749;DHT22;1382;52.142;11.618;2023-04-01T17:37:11;14.10;54.60